Time;durP1;ratioP1;P1;durP2;ratioP2;P2;SDS_P1;SDS_P2;PMS_P1;PMS_P2;Temp;Humidity;BMP_temperature;BMP_pressure;BME280_temperature;BME280_humidity;BME280_pressure;Samples;Min_cycle;Max_cycle;Signal;HPM_P1;HPM_P2
2023/08/11 00:00:37;;;;;;;3.95;1.42;;;16.20;99.90;;;;;;4210162;28;20052;-69
2023/08/11 00:02:39;;;;;;;2.17;1.02;;;16.20;99.90;;;;;;4208821;28;20415;-66
2023/08/11 00:04:40;;;;;;;3.25;1.30;;;16.20;99.90;;;;;;4209818;28;20066;-67
2023/08/11 00:06:41;;;;;;;2.35;1.25;;;16.20;99.90;;;;;;4208193;28;20081;-66
2023/08/11 00:08:43;;;;;;;2.13;1.30;;;16.20;99.90;;;;;;4210656;28;20032;-69
2023/08/11 00:10:45;;;;;;;2.67;1.00;;;16.20;99.90;;;;;;4210542;28;20028;-68
2023/08/11 00:12:47;;;;;;;2.03;1.20;;;16.20;99.90;;;;;;4208556;28;20136;-70
2023/08/11 00:14:48;;;;;;;1.55;1.13;;;16.20;99.90;;;;;;4210293;28;20830;-69
2023/08/11 00:16:49;;;;;;;1.08;0.98;;;16.20;99.90;;;;;;4209727;28;20024;-69
2023/08/11 00:18:50;;;;;;;4.20;0.93;;;16.20;99.90;;;;;;4191589;28;20114;-68
2023/08/11 00:20:51;;;;;;;2.03;1.25;;;16.20;99.90;;;;;;4209846;28;20036;-65
2023/08/11 00:22:53;;;;;;;2.97;1.27;;;16.20;99.90;;;;;;4209432;28;20442;-67
2023/08/11 00:24:54;;;;;;;3.47;1.42;;;16.20;99.90;;;;;;4208868;28;20061;-69
2023/08/11 00:26:55;;;;;;;1.23;0.80;;;16.20;99.90;;;;;;4209807;28;20120;-69
2023/08/11 00:28:57;;;;;;;1.30;1.13;;;16.10;99.90;;;;;;4209643;28;20098;-65
2023/08/11 00:30:58;;;;;;;2.38;1.20;;;16.10;99.90;;;;;;4210891;28;20160;-68
2023/08/11 00:32:59;;;;;;;2.00;1.38;;;16.10;99.90;;;;;;4209227;28;20044;-66
2023/08/11 00:35:00;;;;;;;1.27;1.15;;;16.10;99.90;;;;;;4211067;28;20085;-68
2023/08/11 00:37:01;;;;;;;1.30;0.95;;;16.10;99.90;;;;;;4208485;28;20089;-67
2023/08/11 00:39:02;;;;;;;2.83;1.00;;;16.10;99.90;;;;;;4210507;28;20028;-69
2023/08/11 00:41:05;;;;;;;2.25;1.20;;;16.10;99.90;;;;;;4210209;28;20012;-69
2023/08/11 00:43:06;;;;;;;3.05;1.17;;;16.10;99.90;;;;;;4193658;28;20029;-69
2023/08/11 00:45:08;;;;;;;6.70;1.50;;;16.10;99.90;;;;;;4213491;28;20032;-67
2023/08/11 00:47:10;;;;;;;2.10;1.40;;;16.10;99.90;;;;;;4212370;28;21051;-69
2023/08/11 00:49:11;;;;;;;1.48;1.33;;;16.10;99.90;;;;;;4212496;28;20044;-71
2023/08/11 00:51:15;;;;;;;3.03;1.15;;;16.00;99.90;;;;;;4212433;28;20039;-70
2023/08/11 00:53:16;;;;;;;1.77;1.00;;;16.10;99.90;;;;;;4213332;28;20044;-67
2023/08/11 00:55:20;;;;;;;1.25;1.15;;;16.10;99.90;;;;;;4211024;28;20039;-68
2023/08/11 00:57:21;;;;;;;1.83;1.45;;;16.10;99.90;;;;;;4213405;28;20117;-64
2023/08/11 00:59:23;;;;;;;1.80;1.13;;;16.10;99.90;;;;;;4212472;28;20082;-65
2023/08/11 01:01:24;;;;;;;1.50;1.40;;;16.10;99.90;;;;;;4195242;28;20040;-66
2023/08/11 01:03:25;;;;;;;1.40;0.80;;;16.10;99.90;;;;;;4212725;28;20093;-62
2023/08/11 01:05:34;;;;;;;3.50;1.15;;;16.10;99.90;;;;;;4213529;28;20105;-67
2023/08/11 01:08:03;;;;;;;4.22;1.40;;;16.10;99.90;;;;;;4211899;28;20089;-68
2023/08/11 01:10:15;;;;;;;3.42;1.60;;;16.20;99.90;;;;;;4213529;28;20636;-62
2023/08/11 01:12:28;;;;;;;1.42;1.13;;;16.10;99.90;;;;;;4211898;28;20056;-63
2023/08/11 01:14:38;;;;;;;7.50;1.35;;;16.10;99.90;;;;;;4213472;28;20430;-65
2023/08/11 01:16:40;;;;;;;1.38;1.02;;;16.20;99.90;;;;;;4212487;28;20032;-62
2023/08/11 01:18:42;;;;;;;1.67;1.33;;;16.10;99.90;;;;;;4213195;28;20123;-61
2023/08/11 01:20:44;;;;;;;2.53;1.23;;;16.10;99.90;;;;;;4212172;28;20515;-63
2023/08/11 01:22:47;;;;;;;2.05;1.08;;;16.10;99.90;;;;;;4212766;28;20048;-61
2023/08/11 01:24:48;;;;;;;1.00;0.90;;;16.10;99.90;;;;;;4210985;28;20056;-60
2023/08/11 01:26:50;;;;;;;2.50;1.15;;;16.10;99.90;;;;;;4213235;28;20058;-61
2023/08/11 01:28:53;;;;;;;5.18;1.27;;;16.00;99.90;;;;;;4211327;28;20074;-62
2023/08/11 01:30:54;;;;;;;2.35;1.10;;;16.00;99.90;;;;;;4213062;28;20036;-60
2023/08/11 01:32:56;;;;;;;4.30;1.08;;;16.00;99.90;;;;;;4193553;28;20443;-61
2023/08/11 01:34:57;;;;;;;2.08;1.00;;;16.00;99.90;;;;;;4212574;28;20164;-62
2023/08/11 01:37:03;;;;;;;3.35;1.63;;;16.00;99.90;;;;;;4212482;28;20093;-62
2023/08/11 01:39:04;;;;;;;1.25;1.13;;;16.00;99.90;;;;;;4194263;28;20041;-60
2023/08/11 01:41:06;;;;;;;2.08;1.33;;;16.10;99.90;;;;;;4212370;28;20061;-61
2023/08/11 01:43:10;;;;;;;3.72;0.98;;;16.10;99.90;;;;;;4212038;28;20082;-61
2023/08/11 01:45:14;;;;;;;3.58;1.50;;;16.10;99.90;;;;;;4212553;28;20090;-61
2023/08/11 01:47:17;;;;;;;2.63;1.20;;;16.00;99.90;;;;;;4211055;28;20089;-61
2023/08/11 01:49:18;;;;;;;2.60;1.40;;;16.00;99.90;;;;;;4212060;28;20055;-61
2023/08/11 01:51:20;;;;;;;2.33;1.02;;;16.00;99.90;;;;;;4211484;28;20048;-62
2023/08/11 01:53:21;;;;;;;4.63;1.05;;;15.90;99.90;;;;;;4212739;28;20043;-59
2023/08/11 01:55:24;;;;;;;1.85;1.40;;;15.90;99.90;;;;;;4209936;28;20044;-61
2023/08/11 01:57:25;;;;;;;1.63;1.02;;;15.80;99.90;;;;;;4212756;28;20036;-60
2023/08/11 01:59:28;;;;;;;3.33;1.40;;;15.80;99.90;;;;;;4211647;28;20028;-62
2023/08/11 02:01:30;;;;;;;1.88;1.20;;;15.80;99.90;;;;;;4211811;28;20082;-61
2023/08/11 02:03:31;;;;;;;4.97;1.02;;;15.70;99.90;;;;;;4211182;28;20497;-61
2023/08/11 02:05:33;;;;;;;1.67;1.00;;;15.60;99.90;;;;;;4197178;28;20025;-62
2023/08/11 02:07:35;;;;;;;3.70;1.60;;;15.60;99.90;;;;;;4210715;28;20070;-61
2023/08/11 02:09:36;;;;;;;3.95;1.42;;;15.60;99.90;;;;;;4211763;28;20073;-61
2023/08/11 02:11:38;;;;;;;2.55;1.20;;;15.60;99.90;;;;;;4211584;28;20039;-61
2023/08/11 02:13:40;;;;;;;3.88;1.42;;;15.50;99.90;;;;;;4211806;28;20089;-61
2023/08/11 02:15:41;;;;;;;1.55;1.17;;;15.40;99.90;;;;;;4212132;28;20431;-62
2023/08/11 02:17:42;;;;;;;2.65;1.30;;;15.40;99.90;;;;;;4211561;28;20044;-61
2023/08/11 02:19:43;;;;;;;2.40;1.48;;;15.30;99.90;;;;;;4211239;28;20044;-62
2023/08/11 02:21:44;;;;;;;1.30;1.13;;;15.30;99.90;;;;;;4211068;28;20097;-61
2023/08/11 02:23:45;;;;;;;2.80;1.17;;;15.30;99.90;;;;;;4212741;28;20027;-61
2023/08/11 02:25:46;;;;;;;1.40;1.17;;;15.20;99.90;;;;;;4192425;28;20048;-60
2023/08/11 02:27:47;;;;;;;1.25;1.15;;;15.20;99.90;;;;;;4211203;28;20044;-61
2023/08/11 02:29:49;;;;;;;3.15;1.33;;;15.10;99.90;;;;;;4211327;28;20028;-62
2023/08/11 02:31:50;;;;;;;3.70;1.40;;;15.10;99.90;;;;;;4212355;28;20032;-61
2023/08/11 02:33:51;;;;;;;3.35;1.27;;;15.10;99.90;;;;;;4210738;28;20157;-62
2023/08/11 02:35:53;;;;;;;1.88;1.40;;;15.10;99.90;;;;;;4211318;28;20036;-62
2023/08/11 02:37:55;;;;;;;3.30;1.63;;;15.10;99.90;;;;;;4210215;28;20451;-63
2023/08/11 02:39:56;;;;;;;3.33;1.63;;;15.00;99.90;;;;;;4211128;28;20052;-62
2023/08/11 02:41:57;;;;;;;4.47;1.67;;;15.00;99.90;;;;;;4211006;28;20028;-62
2023/08/11 02:43:58;;;;;;;1.30;1.20;;;14.90;99.90;;;;;;4211286;28;20036;-60
2023/08/11 02:45:59;;;;;;;1.58;1.33;;;14.90;99.90;;;;;;4211210;28;20024;-59
2023/08/11 02:48:01;;;;;;;4.60;1.52;;;14.80;99.90;;;;;;4210678;28;20078;-60
2023/08/11 02:50:04;;;;;;;1.98;1.30;;;14.80;99.90;;;;;;4210089;28;20093;-61
2023/08/11 02:52:05;;;;;;;3.92;1.85;;;14.70;99.90;;;;;;4209500;28;20048;-60
2023/08/11 02:54:06;;;;;;;3.38;1.50;;;14.70;99.90;;;;;;4211316;28;20085;-61
2023/08/11 02:56:09;;;;;;;2.05;1.45;;;14.70;99.90;;;;;;4210199;28;20020;-61
2023/08/11 02:58:11;;;;;;;1.55;1.40;;;14.70;99.90;;;;;;4211001;28;20134;-61
2023/08/11 03:00:13;;;;;;;2.65;1.48;;;14.70;99.90;;;;;;4204751;28;20985;-61
2023/08/11 03:02:14;;;;;;;1.85;1.42;;;14.70;99.90;;;;;;4210409;28;20105;-61
2023/08/11 03:04:16;;;;;;;1.30;1.20;;;14.70;99.90;;;;;;4209018;28;20036;-60
2023/08/11 03:06:17;;;;;;;5.65;1.50;;;14.80;99.90;;;;;;4211095;28;20032;-60
2023/08/11 03:08:18;;;;;;;4.40;1.30;;;14.70;99.90;;;;;;4210522;28;20024;-61
2023/08/11 03:10:19;;;;;;;3.22;1.50;;;14.60;99.90;;;;;;4211247;28;20032;-61
2023/08/11 03:12:21;;;;;;;1.92;1.30;;;14.60;99.90;;;;;;4210380;28;20089;-60
2023/08/11 03:14:22;;;;;;;1.92;1.38;;;14.50;99.90;;;;;;4210754;28;20446;-60
2023/08/11 03:16:25;;;;;;;1.90;1.42;;;14.50;99.90;;;;;;4209685;28;20044;-60
2023/08/11 03:18:26;;;;;;;2.75;1.60;;;14.50;99.90;;;;;;4210539;28;20082;-60
2023/08/11 03:20:27;;;;;;;4.25;1.30;;;14.40;99.90;;;;;;4209641;28;20028;-61
2023/08/11 03:22:28;;;;;;;2.67;1.20;;;14.40;99.90;;;;;;4210407;28;20476;-60
2023/08/11 03:24:29;;;;;;;1.30;1.20;;;14.40;99.90;;;;;;4209519;28;20040;-60
2023/08/11 03:26:31;;;;;;;2.28;1.40;;;14.50;99.90;;;;;;4207064;28;20113;-60
2023/08/11 03:28:32;;;;;;;4.32;1.90;;;14.50;99.90;;;;;;4210376;28;20032;-62
2023/08/11 03:30:33;;;;;;;2.65;1.30;;;14.60;99.90;;;;;;4209666;28;20446;-61
2023/08/11 03:32:34;;;;;;;5.70;1.58;;;14.60;99.90;;;;;;4211076;28;20048;-61
2023/08/11 03:34:35;;;;;;;1.65;1.17;;;14.80;99.90;;;;;;4208653;28;20815;-61
2023/08/11 03:36:36;;;;;;;1.60;1.30;;;14.90;99.90;;;;;;4210366;28;20081;-60
2023/08/11 03:38:38;;;;;;;2.97;1.35;;;15.00;99.90;;;;;;4209804;28;20028;-61
2023/08/11 03:40:39;;;;;;;4.25;1.60;;;15.20;99.90;;;;;;4210319;28;20101;-61
2023/08/11 03:42:42;;;;;;;2.55;1.70;;;15.40;99.90;;;;;;4210428;28;20496;-61
2023/08/11 03:44:43;;;;;;;3.22;1.70;;;15.60;99.90;;;;;;4210550;28;20029;-61
2023/08/11 03:46:44;;;;;;;6.22;1.40;;;15.70;99.90;;;;;;4209494;28;20040;-61
2023/08/11 03:48:46;;;;;;;3.20;1.10;;;15.90;99.90;;;;;;4210747;28;20028;-62
2023/08/11 03:50:47;;;;;;;1.83;1.17;;;16.10;99.90;;;;;;4210176;28;20052;-61
2023/08/11 03:52:48;;;;;;;2.80;1.50;;;16.20;99.90;;;;;;4210080;28;20048;-61
2023/08/11 03:54:50;;;;;;;3.50;1.33;;;16.40;99.90;;;;;;4210454;28;20048;-59
2023/08/11 03:56:51;;;;;;;3.30;1.58;;;16.60;99.90;;;;;;4210200;28;20085;-61
2023/08/11 03:58:52;;;;;;;6.90;1.70;;;16.80;99.90;;;;;;4209937;28;20077;-59
2023/08/11 04:00:54;;;;;;;2.60;1.27;;;17.00;99.90;;;;;;4191028;28;20058;-61
2023/08/11 04:02:55;;;;;;;2.30;1.55;;;17.30;99.90;;;;;;4192153;28;20040;-61
2023/08/11 04:04:57;;;;;;;8.07;1.55;;;17.60;99.90;;;;;;4208998;28;20104;-60
2023/08/11 04:06:58;;;;;;;2.20;1.70;;;18.00;99.90;;;;;;4210656;28;20040;-59
2023/08/11 04:09:00;;;;;;;5.88;2.65;;;18.20;99.90;;;;;;4209457;28;20074;-61
2023/08/11 04:11:01;;;;;;;3.53;1.70;;;18.30;99.90;;;;;;4210383;28;20040;-59
2023/08/11 04:13:02;;;;;;;3.22;1.65;;;18.40;99.90;;;;;;4209259;28;20052;-60
2023/08/11 04:15:05;;;;;;;8.00;1.70;;;18.80;99.90;;;;;;4210236;28;20043;-60
2023/08/11 04:17:07;;;;;;;2.85;1.17;;;19.20;99.90;;;;;;4208137;28;20052;-62
2023/08/11 04:19:09;;;;;;;1.67;1.40;;;19.20;99.90;;;;;;4208884;28;20396;-62
2023/08/11 04:21:10;;;;;;;2.10;1.20;;;19.40;99.90;;;;;;4208152;28;20036;-68
2023/08/11 04:23:11;;;;;;;3.53;1.50;;;19.40;99.90;;;;;;4209520;28;20093;-62
2023/08/11 04:25:13;;;;;;;2.70;1.35;;;19.40;99.90;;;;;;4209723;28;20508;-60
2023/08/11 04:27:14;;;;;;;3.45;1.65;;;19.80;99.90;;;;;;4209213;28;20051;-60
2023/08/11 04:29:15;;;;;;;2.22;1.38;;;20.10;99.90;;;;;;4209057;28;20101;-60
2023/08/11 04:31:16;;;;;;;3.63;2.15;;;20.40;99.90;;;;;;4208609;28;20044;-60
2023/08/11 04:33:17;;;;;;;1.58;1.10;;;20.30;99.90;;;;;;4208147;28;20449;-61
2023/08/11 04:35:19;;;;;;;7.78;1.60;;;20.00;99.90;;;;;;4209002;28;20036;-62
2023/08/11 04:37:20;;;;;;;2.05;1.70;;;19.50;99.90;;;;;;4209764;28;20824;-61
2023/08/11 04:39:21;;;;;;;6.95;2.47;;;18.90;99.90;;;;;;4191209;28;20063;-62
2023/08/11 04:41:22;;;;;;;3.08;1.58;;;18.40;99.90;;;;;;4210845;28;20483;-61
2023/08/11 04:43:24;;;;;;;3.58;1.40;;;18.00;99.90;;;;;;4209608;28;20074;-61
2023/08/11 04:45:26;;;;;;;3.20;1.85;;;17.90;99.90;;;;;;4208934;28;20034;-60
2023/08/11 04:47:27;;;;;;;6.10;1.80;;;17.90;99.90;;;;;;4204329;28;20028;-60
2023/08/11 04:49:28;;;;;;;2.92;1.40;;;18.00;99.90;;;;;;4209553;28;20434;-61
2023/08/11 04:51:29;;;;;;;6.53;1.50;;;18.30;99.90;;;;;;4207807;28;20109;-59
2023/08/11 04:53:30;;;;;;;4.70;1.52;;;18.60;99.90;;;;;;4209443;28;20055;-60
2023/08/11 04:55:32;;;;;;;2.88;1.40;;;18.90;99.90;;;;;;4209559;28;20419;-61
2023/08/11 04:57:33;;;;;;;2.35;2.00;;;19.40;99.90;;;;;;4209499;28;20476;-61
2023/08/11 04:59:34;;;;;;;3.33;1.50;;;19.90;99.90;;;;;;4206079;28;20625;-63
2023/08/11 05:01:36;;;;;;;4.32;1.30;;;20.70;99.90;;;;;;4204706;28;20419;-61
2023/08/11 05:03:37;;;;;;;7.00;1.90;;;21.40;99.90;;;;;;4209085;28;20036;-62
2023/08/11 05:05:38;;;;;;;4.03;1.88;;;22.20;99.90;;;;;;4208516;28;20593;-61
2023/08/11 05:07:39;;;;;;;6.63;1.65;;;22.80;99.90;;;;;;4210459;28;20036;-61
2023/08/11 05:09:40;;;;;;;3.20;1.50;;;23.20;99.90;;;;;;4208540;28;20371;-61
2023/08/11 05:11:41;;;;;;;3.63;1.33;;;23.80;99.90;;;;;;4209623;28;20446;-61
2023/08/11 05:13:45;;;;;;;3.17;1.27;;;24.40;99.90;;;;;;4209270;28;20090;-61
2023/08/11 05:15:46;;;;;;;2.95;1.80;;;25.00;99.90;;;;;;4210580;28;20040;-61
2023/08/11 05:17:48;;;;;;;4.30;1.55;;;25.30;99.90;;;;;;4221815;28;20085;-62
2023/08/11 05:19:49;;;;;;;2.53;2.08;;;25.60;99.90;;;;;;4211664;28;20145;-62
2023/08/11 05:21:50;;;;;;;4.80;1.52;;;25.80;99.90;;;;;;4208857;28;20086;-60
2023/08/11 05:23:51;;;;;;;4.07;1.33;;;26.00;99.90;;;;;;4210132;28;20040;-61
2023/08/11 05:25:54;;;;;;;1.60;1.00;;;26.50;99.60;;;;;;4208163;28;20442;-62
2023/08/11 05:27:55;;;;;;;1.70;1.17;;;26.60;98.90;;;;;;4209216;28;20032;-62
2023/08/11 05:29:56;;;;;;;3.90;1.15;;;26.70;98.50;;;;;;4211898;28;20028;-61
2023/08/11 05:31:57;;;;;;;4.00;1.10;;;27.00;98.00;;;;;;4211908;28;20449;-61
2023/08/11 05:33:59;;;;;;;1.70;1.23;;;27.30;97.50;;;;;;4211969;28;20078;-61
2023/08/11 05:36:00;;;;;;;3.47;1.40;;;27.80;96.80;;;;;;4211524;28;20161;-60
2023/08/11 05:38:01;;;;;;;3.15;1.30;;;28.10;96.20;;;;;;4212941;28;20024;-61
2023/08/11 05:40:03;;;;;;;2.25;1.30;;;28.10;96.10;;;;;;4193598;28;20074;-62
2023/08/11 05:42:06;;;;;;;7.88;1.58;;;28.30;95.40;;;;;;4212496;28;20102;-62
2023/08/11 05:44:08;;;;;;;5.78;1.42;;;28.00;95.20;;;;;;4211013;28;20429;-61
2023/08/11 05:46:10;;;;;;;3.08;1.50;;;28.20;94.90;;;;;;4213025;28;20451;-60
2023/08/11 05:48:11;;;;;;;4.28;1.17;;;28.40;94.50;;;;;;4211895;28;20537;-61
2023/08/11 05:50:13;;;;;;;3.38;0.98;;;28.50;94.20;;;;;;4212103;28;20036;-61
2023/08/11 05:52:14;;;;;;;4.85;1.52;;;28.70;93.90;;;;;;4211089;28;20101;-61
2023/08/11 05:54:15;;;;;;;4.90;1.58;;;29.00;93.50;;;;;;4212233;28;20048;-62
2023/08/11 05:56:16;;;;;;;1.73;1.13;;;28.90;93.20;;;;;;4211456;28;20028;-62
2023/08/11 05:58:17;;;;;;;1.63;1.20;;;29.10;92.90;;;;;;4211805;28;20105;-61
2023/08/11 06:00:19;;;;;;;4.10;1.40;;;29.50;92.50;;;;;;4210990;28;20040;-61
2023/08/11 06:02:20;;;;;;;2.15;1.10;;;29.60;92.30;;;;;;4211480;28;20101;-60
2023/08/11 06:04:21;;;;;;;4.28;1.48;;;29.50;91.80;;;;;;4211433;28;20354;-62
2023/08/11 06:06:22;;;;;;;4.63;1.42;;;29.40;91.80;;;;;;4212041;28;20081;-60
2023/08/11 06:08:23;;;;;;;1.15;1.02;;;29.60;91.70;;;;;;4211194;28;20380;-59
2023/08/11 06:10:26;;;;;;;2.50;1.17;;;29.70;91.50;;;;;;4210621;28;20097;-60
2023/08/11 06:12:27;;;;;;;3.70;1.40;;;29.80;91.30;;;;;;4212349;28;20032;-61
2023/08/11 06:14:28;;;;;;;3.53;1.10;;;29.80;91.10;;;;;;4211332;28;20033;-62
2023/08/11 06:16:29;;;;;;;3.42;1.40;;;29.70;90.90;;;;;;4212747;28;20502;-61
2023/08/11 06:18:30;;;;;;;1.33;1.17;;;29.30;90.90;;;;;;4210879;28;20036;-61
2023/08/11 06:20:32;;;;;;;3.33;1.48;;;29.40;90.90;;;;;;4212520;28;20438;-61
2023/08/11 06:22:33;;;;;;;3.92;1.00;;;29.70;90.70;;;;;;4211278;28;20024;-62
2023/08/11 06:24:34;;;;;;;7.90;1.38;;;29.70;90.70;;;;;;4212209;28;20074;-62
2023/08/11 06:26:35;;;;;;;1.88;1.52;;;29.60;90.50;;;;;;4210547;28;20093;-61
2023/08/11 06:28:36;;;;;;;5.00;1.48;;;28.80;90.60;;;;;;4212580;28;20028;-60
2023/08/11 06:30:37;;;;;;;3.80;2.13;;;28.50;91.10;;;;;;4211106;28;20109;-62
2023/08/11 06:32:39;;;;;;;1.38;0.88;;;28.40;91.30;;;;;;4212011;28;20057;-60
2023/08/11 06:34:40;;;;;;;2.40;1.08;;;27.60;91.60;;;;;;4210280;28;20471;-60
2023/08/11 06:36:41;;;;;;;4.82;1.27;;;27.60;92.00;;;;;;4210960;28;20121;-62
2023/08/11 06:38:42;;;;;;;3.25;1.52;;;27.50;92.00;;;;;;4210865;28;20097;-60
2023/08/11 06:40:44;;;;;;;8.10;1.95;;;27.30;92.20;;;;;;4209398;28;20036;-62
2023/08/11 06:42:45;;;;;;;6.43;1.40;;;26.70;92.50;;;;;;4210707;28;20036;-62
2023/08/11 06:44:46;;;;;;;8.40;1.67;;;26.70;92.80;;;;;;4210008;28;20457;-61
2023/08/11 06:46:47;;;;;;;3.80;1.58;;;26.90;92.80;;;;;;4211311;28;20081;-59
2023/08/11 06:48:48;;;;;;;4.22;1.38;;;27.00;92.70;;;;;;4210166;28;20464;-62
2023/08/11 06:50:49;;;;;;;2.92;1.77;;;26.90;92.80;;;;;;4211749;28;20438;-61
2023/08/11 06:52:50;;;;;;;5.38;1.80;;;26.70;92.90;;;;;;4209735;28;20036;-61
2023/08/11 06:54:51;;;;;;;1.75;1.20;;;26.70;93.10;;;;;;4211173;28;20088;-60
2023/08/11 06:56:53;;;;;;;4.78;1.10;;;26.90;93.00;;;;;;4210019;28;20463;-61
2023/08/11 06:58:54;;;;;;;2.13;1.10;;;26.90;93.00;;;;;;4211919;28;20028;-61
2023/08/11 07:00:55;;;;;;;5.85;1.27;;;26.80;93.00;;;;;;4209841;28;20448;-59
2023/08/11 07:02:56;;;;;;;4.65;1.90;;;26.50;93.20;;;;;;4210920;28;20065;-61
2023/08/11 07:04:57;;;;;;;2.47;1.38;;;26.20;93.50;;;;;;4210745;28;20050;-60
2023/08/11 07:06:58;;;;;;;4.35;1.50;;;25.90;93.60;;;;;;4210975;28;20066;-60
2023/08/11 07:09:00;;;;;;;3.33;1.88;;;25.80;93.90;;;;;;4210280;28;20028;-63
2023/08/11 07:11:01;;;;;;;1.80;1.40;;;25.40;94.20;;;;;;4209616;28;20549;-61
2023/08/11 07:13:02;;;;;;;1.55;1.25;;;25.10;94.60;;;;;;4210411;28;20094;-62
2023/08/11 07:15:03;;;;;;;3.70;1.73;;;24.80;94.90;;;;;;4210532;28;20089;-62
2023/08/11 07:17:05;;;;;;;3.05;1.50;;;24.50;95.30;;;;;;4210816;28;20036;-62
2023/08/11 07:19:07;;;;;;;4.47;1.77;;;24.20;95.50;;;;;;4209587;28;20047;-62
2023/08/11 07:21:08;;;;;;;3.47;1.90;;;24.10;96.10;;;;;;4211403;28;20016;-60
2023/08/11 07:23:10;;;;;;;3.90;1.38;;;24.10;96.00;;;;;;4209647;28;20686;-62
2023/08/11 07:25:12;;;;;;;3.33;1.90;;;23.80;96.50;;;;;;4210441;28;20044;-61
2023/08/11 07:27:13;;;;;;;3.35;1.90;;;23.80;96.70;;;;;;4209304;28;20040;-60
2023/08/11 07:29:14;;;;;;;5.03;1.85;;;23.80;96.70;;;;;;4193086;28;20365;-60
2023/08/11 07:31:15;;;;;;;2.10;1.50;;;23.80;96.80;;;;;;4209304;28;20082;-60
2023/08/11 07:33:16;;;;;;;3.97;1.67;;;23.80;96.70;;;;;;4210246;28;20024;-60
2023/08/11 07:35:17;;;;;;;15.95;2.72;;;23.70;96.80;;;;;;4209443;28;20044;-59
2023/08/11 07:37:18;;;;;;;5.20;1.50;;;23.60;96.90;;;;;;4210131;28;20631;-60
2023/08/11 07:39:19;;;;;;;3.17;1.55;;;23.50;97.10;;;;;;4209370;28;20051;-60
2023/08/11 07:41:21;;;;;;;7.57;1.60;;;23.40;97.20;;;;;;4210494;28;20469;-60
2023/08/11 07:43:22;;;;;;;4.78;1.88;;;23.50;97.40;;;;;;4210419;28;20024;-61
2023/08/11 07:45:23;;;;;;;4.50;1.33;;;23.60;97.40;;;;;;4209185;28;20112;-61
2023/08/11 07:47:24;;;;;;;3.38;1.60;;;23.60;97.50;;;;;;4209969;28;20089;-62
2023/08/11 07:49:25;;;;;;;2.63;1.60;;;23.60;97.60;;;;;;4209626;28;20093;-61
2023/08/11 07:51:26;;;;;;;3.22;1.85;;;23.30;97.90;;;;;;4210935;28;20100;-61
2023/08/11 07:53:27;;;;;;;4.68;2.42;;;23.10;98.30;;;;;;4208949;28;20036;-60
2023/08/11 07:55:29;;;;;;;3.30;1.77;;;23.20;98.60;;;;;;4210264;28;20084;-61
2023/08/11 07:57:30;;;;;;;7.47;2.08;;;23.10;98.60;;;;;;4208950;28;20032;-61
2023/08/11 07:59:31;;;;;;;4.28;1.50;;;23.10;98.60;;;;;;4210750;28;20032;-62
2023/08/11 08:01:33;;;;;;;4.32;2.45;;;23.20;98.20;;;;;;4191061;28;20526;-59
2023/08/11 08:03:37;;;;;;;4.90;1.50;;;22.70;97.90;;;;;;4210000;28;20101;-60
2023/08/11 08:05:38;;;;;;;3.90;1.75;;;22.60;98.20;;;;;;4208809;28;20151;-59
2023/08/11 08:07:39;;;;;;;3.08;1.70;;;22.70;98.30;;;;;;4209774;28;20044;-61
2023/08/11 08:09:40;;;;;;;1.98;1.38;;;22.80;98.20;;;;;;4208483;28;20121;-60
2023/08/11 08:11:43;;;;;;;2.55;1.38;;;23.00;98.00;;;;;;4209313;28;20036;-62
2023/08/11 08:13:44;;;;;;;4.78;1.70;;;23.00;97.80;;;;;;4209932;28;20109;-61
2023/08/11 08:15:45;;;;;;;3.85;1.60;;;23.10;97.70;;;;;;4209907;28;20434;-60
2023/08/11 08:17:46;;;;;;;6.60;1.70;;;23.10;97.70;;;;;;4209676;28;20028;-62
2023/08/11 08:19:48;;;;;;;4.68;1.60;;;23.00;98.00;;;;;;4209461;28;20464;-61
2023/08/11 08:21:49;;;;;;;3.60;2.10;;;22.90;97.90;;;;;;4209727;28;20074;-62
2023/08/11 08:23:50;;;;;;;5.45;1.45;;;22.90;98.10;;;;;;4208518;28;20067;-60
2023/08/11 08:25:51;;;;;;;3.75;1.50;;;22.60;98.00;;;;;;4210875;28;20081;-61
2023/08/11 08:27:53;;;;;;;2.72;1.73;;;22.60;98.30;;;;;;4209384;28;20090;-61
2023/08/11 08:29:54;;;;;;;5.65;1.75;;;22.80;98.30;;;;;;4209694;28;20081;-61
2023/08/11 08:31:55;;;;;;;2.25;1.58;;;23.00;98.30;;;;;;4209195;28;20032;-61
2023/08/11 08:33:56;;;;;;;3.97;1.65;;;23.20;98.30;;;;;;4210264;28;20422;-62
2023/08/11 08:35:57;;;;;;;2.88;1.73;;;23.40;98.20;;;;;;4208552;28;20032;-62
2023/08/11 08:37:58;;;;;;;3.53;1.65;;;23.50;98.00;;;;;;4209728;28;20044;-61
2023/08/11 08:40:00;;;;;;;5.32;1.30;;;23.60;97.90;;;;;;4209119;28;20844;-61
2023/08/11 08:42:05;;;;;;;3.28;1.33;;;23.50;97.70;;;;;;4209123;28;20357;-61
2023/08/11 08:44:06;;;;;;;1.63;1.30;;;23.60;97.60;;;;;;4208914;28;20077;-62
2023/08/11 08:46:08;;;;;;;5.20;1.80;;;23.80;97.30;;;;;;4209812;28;20028;-60
2023/08/11 08:48:24;;;;;;;4.82;1.55;;;23.90;97.10;;;;;;4209813;28;20456;-62
2023/08/11 08:50:26;;;;;;;3.40;1.58;;;23.90;97.00;;;;;;4209671;28;20553;-61
2023/08/11 08:52:28;;;;;;;2.40;1.20;;;23.90;96.90;;;;;;4208816;28;20028;-59
2023/08/11 08:54:30;;;;;;;2.60;1.27;;;23.50;96.80;;;;;;4209507;28;20028;-62
2023/08/11 08:56:31;;;;;;;5.10;1.48;;;23.50;97.00;;;;;;4190934;28;20067;-60
2023/08/11 08:58:32;;;;;;;2.35;1.42;;;23.80;96.90;;;;;;4206653;28;20438;-60
2023/08/11 09:00:34;;;;;;;3.53;1.05;;;23.90;96.80;;;;;;4209648;28;20093;-61
2023/08/11 09:02:36;;;;;;;5.15;1.60;;;24.20;96.60;;;;;;4208963;28;20032;-63
2023/08/11 09:04:37;;;;;;;4.43;1.58;;;24.10;96.60;;;;;;4211738;28;20089;-61
2023/08/11 09:06:38;;;;;;;4.45;1.77;;;24.00;96.70;;;;;;4193733;28;20029;-62
2023/08/11 09:08:39;;;;;;;4.30;1.65;;;23.80;96.60;;;;;;4213488;28;20032;-61
2023/08/11 09:10:41;;;;;;;3.50;1.38;;;23.60;96.10;;;;;;4211349;28;20065;-62
2023/08/11 09:12:44;;;;;;;4.05;1.63;;;23.40;96.00;;;;;;4212566;28;20097;-61
2023/08/11 09:14:45;;;;;;;1.58;1.45;;;23.30;96.40;;;;;;4211460;28;20052;-62
2023/08/11 09:16:48;;;;;;;1.48;1.20;;;23.40;96.50;;;;;;4213431;28;20020;-61
2023/08/11 09:18:50;;;;;;;1.92;1.30;;;23.70;96.20;;;;;;4211962;28;20486;-63
2023/08/11 09:20:52;;;;;;;0.98;0.88;;;24.00;96.00;;;;;;4212930;28;20032;-66
2023/08/11 09:22:53;;;;;;;2.40;1.05;;;24.20;95.60;;;;;;4211382;28;20070;-60
2023/08/11 09:24:55;;;;;;;3.20;1.27;;;24.50;95.10;;;;;;4211851;28;20040;-61
2023/08/11 09:26:58;;;;;;;1.40;1.25;;;24.80;94.90;;;;;;4211662;28;20093;-61
2023/08/11 09:28:59;;;;;;;3.50;0.77;;;24.70;94.70;;;;;;4211521;28;20090;-62
2023/08/11 09:31:01;;;;;;;2.28;1.33;;;24.50;94.60;;;;;;4212876;28;20085;-61
2023/08/11 09:33:03;;;;;;;4.85;1.38;;;24.30;94.50;;;;;;4211213;28;20048;-61
2023/08/11 09:35:09;;;;;;;1.73;1.00;;;24.40;94.40;;;;;;4211536;28;20082;-61
2023/08/11 09:37:10;;;;;;;1.23;1.13;;;24.30;94.50;;;;;;4210751;28;21147;-63
2023/08/11 09:39:11;;;;;;;3.33;1.10;;;24.30;94.60;;;;;;4212174;28;20032;-61
2023/08/11 09:41:13;;;;;;;5.65;1.48;;;24.40;94.50;;;;;;4211588;28;20078;-61
2023/08/11 09:43:14;;;;;;;2.53;1.05;;;24.40;94.10;;;;;;4212656;28;20306;-60
2023/08/11 09:45:17;;;;;;;6.45;1.30;;;24.40;93.90;;;;;;4210938;28;20040;-61
2023/08/11 09:47:20;;;;;;;2.00;1.08;;;24.50;94.00;;;;;;4211894;28;20066;-66
2023/08/11 09:49:21;;;;;;;2.58;1.00;;;24.50;93.70;;;;;;4210191;28;20043;-62
2023/08/11 09:51:23;;;;;;;3.42;1.90;;;24.50;93.50;;;;;;4211973;28;20047;-61
2023/08/11 09:53:26;;;;;;;2.70;1.67;;;24.30;93.60;;;;;;4211004;28;20036;-61
2023/08/11 09:55:29;;;;;;;1.48;1.10;;;24.40;93.80;;;;;;4212914;28;20036;-62
2023/08/11 09:57:31;;;;;;;1.80;1.05;;;24.50;93.80;;;;;;4210971;28;20074;-60
2023/08/11 09:59:32;;;;;;;3.15;1.02;;;24.80;93.30;;;;;;4212374;28;20028;-62
2023/08/11 10:01:35;;;;;;;2.08;1.23;;;25.00;93.20;;;;;;4212030;28;20081;-64
2023/08/11 10:03:43;;;;;;;3.15;0.98;;;25.10;92.90;;;;;;4210953;28;20139;-61
2023/08/11 10:05:46;;;;;;;1.85;1.00;;;25.10;92.80;;;;;;4211692;28;20028;-63
2023/08/11 10:07:50;;;;;;;1.48;1.08;;;25.20;92.90;;;;;;4193254;28;20067;-60
2023/08/11 10:09:52;;;;;;;1.25;1.02;;;25.20;92.80;;;;;;4211553;28;20113;-61
2023/08/11 10:11:55;;;;;;;1.00;0.80;;;25.30;92.70;;;;;;4210757;28;20101;-62
2023/08/11 10:13:56;;;;;;;4.03;1.20;;;25.50;93.00;;;;;;4212499;28;20012;-61
2023/08/11 10:15:58;;;;;;;2.58;1.45;;;25.40;92.80;;;;;;4209113;28;20066;-61
2023/08/11 10:18:02;;;;;;;2.92;1.25;;;25.30;92.90;;;;;;4212713;28;20031;-60
2023/08/11 10:20:06;;;;;;;3.80;1.27;;;25.20;92.80;;;;;;4210755;28;20048;-61
2023/08/11 10:22:08;;;;;;;5.93;1.20;;;25.00;92.40;;;;;;4211451;28;20082;-61
2023/08/11 10:24:10;;;;;;;2.28;1.27;;;25.00;92.60;;;;;;4210252;28;20032;-61
2023/08/11 10:26:12;;;;;;;2.20;0.90;;;25.00;92.50;;;;;;4211353;28;20171;-62
2023/08/11 10:28:14;;;;;;;1.52;0.60;;;25.00;92.30;;;;;;4211291;28;20032;-61
2023/08/11 10:30:16;;;;;;;4.13;0.90;;;25.10;92.10;;;;;;4212149;28;20067;-61
2023/08/11 10:32:17;;;;;;;3.72;0.88;;;25.20;91.90;;;;;;4211076;28;20489;-60
2023/08/11 10:34:22;;;;;;;4.18;1.00;;;25.10;91.60;;;;;;4211933;28;20065;-60